Jutai, Brazil
Current Conditions -  °F | °C
As of 6:00 PM on Sunday 23 Nov 2014 (Local Time) from SKLT Reporting Station
Few Clouds Few Clouds  
Wind Chill: 88°   Ceiling: Unl
Heat Index: 100°   Visibility: 6mi
Dew Point: 77°   Wind: 2mph
Humidity: 70%   Direction: NA
Pressure: 29.7"   Gusts: NA
Location:  5.52°S, 69.14°W
Report Text: SKLT 232200Z VRB02KT 9999 FEW020 31/25 A2970
Loading
Personal Weather Stations






























Interactive Weather Map New forecast layout! Learn more

10-Day Weather Forecast

Advertisements
Track Severe Weather on mobile